createdAt,value
2018-10-17T00:00:20.165Z,82.50
2018-10-17T00:02:48.265Z,82.70
2018-10-17T00:05:16.342Z,82.70
2018-10-17T00:07:44.410Z,82.80
2018-10-17T00:10:12.478Z,82.90
2018-10-17T00:12:41.246Z,82.90
2018-10-17T00:15:09.730Z,82.90
2018-10-17T00:17:37.805Z,83.00
2018-10-17T00:20:07.034Z,83.00
2018-10-17T00:22:35.114Z,83.00
2018-10-17T00:25:03.218Z,83.20
2018-10-17T00:27:31.278Z,83.20
2018-10-17T00:29:59.519Z,83.10
2018-10-17T00:32:27.593Z,83.20
2018-10-17T00:34:55.719Z,83.40
2018-10-17T00:37:23.738Z,83.50
2018-10-17T00:39:51.793Z,83.70
2018-10-17T00:42:19.865Z,83.70
2018-10-17T00:44:47.932Z,83.70
2018-10-17T00:47:16.069Z,83.70
2018-10-17T00:49:44.090Z,83.80
2018-10-17T00:52:12.171Z,83.70
2018-10-17T00:54:40.246Z,83.80
2018-10-17T00:57:08.317Z,83.90
2018-10-17T00:59:36.393Z,83.90
2018-10-17T01:02:04.854Z,83.90
2018-10-17T01:04:32.922Z,83.90
2018-10-17T01:07:01.095Z,83.80
2018-10-17T01:09:29.131Z,83.80
2018-10-17T01:11:57.205Z,83.90
2018-10-17T01:14:25.284Z,84.20
2018-10-17T01:16:53.397Z,84.20
2018-10-17T01:19:21.433Z,84.10
2018-10-17T01:21:49.504Z,84.20
2018-10-17T01:24:17.579Z,84.30
2018-10-17T01:26:45.658Z,84.30
2018-10-17T01:29:13.807Z,84.30
2018-10-17T01:31:41.799Z,84.30
2018-10-17T01:34:09.869Z,84.20
2018-10-17T01:36:37.945Z,84.30
2018-10-17T01:39:07.730Z,84.20
2018-10-17T01:41:35.816Z,84.20
2018-10-17T01:44:03.878Z,84.20
2018-10-17T01:46:31.950Z,84.40
2018-10-17T01:49:00.044Z,84.50
2018-10-17T01:51:28.077Z,84.50
2018-10-17T01:53:56.161Z,84.70
2018-10-17T01:56:24.263Z,84.70
2018-10-17T01:58:52.329Z,84.60
2018-10-17T02:01:20.391Z,84.40
2018-10-17T02:03:48.458Z,84.40
2018-10-17T02:06:16.529Z,84.30
2018-10-17T02:08:44.754Z,84.40
2018-10-17T02:11:12.917Z,84.40
2018-10-17T02:13:40.890Z,84.30
2018-10-17T02:16:08.947Z,84.30
2018-10-17T02:18:37.019Z,84.30
2018-10-17T02:21:05.513Z,84.40
2018-10-17T02:23:33.594Z,84.50
2018-10-17T02:26:01.667Z,84.40
2018-10-17T02:28:29.750Z,84.60
2018-10-17T02:30:57.834Z,84.50
2018-10-17T02:33:25.895Z,84.40
2018-10-17T02:35:53.962Z,84.50
2018-10-17T02:38:22.034Z,84.50
2018-10-17T02:40:50.105Z,84.50
2018-10-17T02:43:18.333Z,84.50
2018-10-17T02:45:46.294Z,84.60
2018-10-17T02:48:14.369Z,84.50
2018-10-17T02:50:42.433Z,84.40
2018-10-17T02:53:10.577Z,84.30
2018-10-17T02:55:38.577Z,84.30
2018-10-17T02:58:06.652Z,84.60
2018-10-17T03:00:34.723Z,84.70
2018-10-17T03:03:02.796Z,84.60
2018-10-17T03:05:30.907Z,84.70
2018-10-17T03:07:58.954Z,84.70
2018-10-17T03:10:27.030Z,84.60
2018-10-17T03:12:55.138Z,84.70
2018-10-17T03:15:23.171Z,84.90
2018-10-17T03:17:51.252Z,84.90
2018-10-17T03:20:19.321Z,85.10
2018-10-17T03:22:47.386Z,85.00
2018-10-17T03:25:15.472Z,85.00
2018-10-17T03:27:43.583Z,85.00
2018-10-17T03:30:11.603Z,84.80
2018-10-17T03:32:39.683Z,85.30
2018-10-17T03:35:07.909Z,85.10
2018-10-17T03:37:36.276Z,85.10
2018-10-17T03:40:04.690Z,85.30
2018-10-17T03:42:32.778Z,85.60
2018-10-17T03:45:00.847Z,85.50
2018-10-17T03:47:28.923Z,85.70
2018-10-17T03:49:57.040Z,85.70
2018-10-17T03:52:25.071Z,85.70
2018-10-17T03:54:53.215Z,85.80
2018-10-17T03:57:21.230Z,86.10
2018-10-17T03:59:49.387Z,86.50
2018-10-17T04:02:17.371Z,86.10
2018-10-17T04:04:45.442Z,86.20
2018-10-17T04:07:13.596Z,86.00
2018-10-17T04:09:41.578Z,86.30
2018-10-17T04:12:09.647Z,86.30
2018-10-17T04:14:37.730Z,86.70
2018-10-17T04:17:05.929Z,87.20
2018-10-17T04:19:33.964Z,86.40
2018-10-17T04:22:02.027Z,86.80
2018-10-17T04:24:30.098Z,86.80
2018-10-17T04:26:58.172Z,86.90
2018-10-17T04:29:26.853Z,87.40
2018-10-17T04:31:54.922Z,87.40
2018-10-17T04:34:22.997Z,87.30
2018-10-17T04:36:51.075Z,87.40
2018-10-17T04:39:19.145Z,87.40
2018-10-17T04:41:47.214Z,87.50
2018-10-17T04:44:15.291Z,87.80
2018-10-17T04:46:43.362Z,88.10
2018-10-17T04:49:11.520Z,88.40
2018-10-17T04:51:39.518Z,88.20
2018-10-17T04:54:07.735Z,88.00
2018-10-17T04:56:36.014Z,88.10
2018-10-17T04:59:04.244Z,88.20
2018-10-17T05:01:32.267Z,88.30
2018-10-17T05:04:00.351Z,88.40
2018-10-17T05:06:28.424Z,88.30
2018-10-17T05:08:56.499Z,87.80
2018-10-17T05:11:24.578Z,87.60
2018-10-17T05:13:53.231Z,88.00
2018-10-17T05:16:21.502Z,87.90
2018-10-17T05:18:49.579Z,87.80
2018-10-17T05:21:17.662Z,87.70
2018-10-17T05:23:45.751Z,87.60
2018-10-17T05:26:13.850Z,87.40
2018-10-17T05:28:41.920Z,87.30
2018-10-17T05:31:10.050Z,87.20
2018-10-17T05:33:38.222Z,87.00
2018-10-17T05:36:06.306Z,86.90
2018-10-17T05:38:34.397Z,86.80
2018-10-17T05:41:02.523Z,86.50
2018-10-17T05:43:30.532Z,86.50
2018-10-17T05:45:58.778Z,86.20
2018-10-17T05:48:26.858Z,86.20
2018-10-17T05:50:54.937Z,86.10
2018-10-17T05:53:23.206Z,86.20
2018-10-17T05:55:51.324Z,86.20
2018-10-17T05:58:19.414Z,86.30
2018-10-17T06:00:47.482Z,86.40
2018-10-17T06:03:15.578Z,86.40
2018-10-17T06:05:43.644Z,86.40
2018-10-17T06:08:11.702Z,86.40
2018-10-17T06:10:39.780Z,86.70
2018-10-17T06:13:07.868Z,86.50
2018-10-17T06:15:35.931Z,86.40
2018-10-17T06:18:03.998Z,86.40
2018-10-17T06:20:32.181Z,86.30
2018-10-17T06:23:00.279Z,86.30
2018-10-17T06:25:28.379Z,86.40
2018-10-17T06:27:56.386Z,86.20
2018-10-17T06:30:24.455Z,86.30
2018-10-17T06:32:52.539Z,86.80
2018-10-17T06:35:20.680Z,86.50
2018-10-17T06:37:48.694Z,86.40
2018-10-17T06:40:16.780Z,86.30
2018-10-17T06:42:44.851Z,86.80
2018-10-17T06:45:12.926Z,87.00
2018-10-17T06:47:41.017Z,87.00
2018-10-17T06:50:09.790Z,87.50
2018-10-17T06:52:37.858Z,87.60
2018-10-17T06:55:06.576Z,87.70
2018-10-17T06:57:34.560Z,87.80
2018-10-17T07:00:02.646Z,88.60
2018-10-17T07:02:30.724Z,88.70
2018-10-17T07:04:58.810Z,88.30
2018-10-17T07:07:26.879Z,88.20
2018-10-17T07:09:54.978Z,87.90
2018-10-17T07:12:23.059Z,88.00
2018-10-17T07:14:51.135Z,88.20
2018-10-17T07:17:19.202Z,88.10
2018-10-17T07:19:47.280Z,87.70
2018-10-17T07:22:15.358Z,87.40
2018-10-17T07:24:43.453Z,87.80
2018-10-17T07:27:11.532Z,86.80
2018-10-17T07:29:39.776Z,88.30
2018-10-17T07:32:07.691Z,87.70
2018-10-17T07:34:35.770Z,87.30
2018-10-17T07:37:03.843Z,86.80
2018-10-17T07:39:31.922Z,86.70
2018-10-17T07:42:00.005Z,87.90
2018-10-17T07:44:28.786Z,88.40
2018-10-17T07:46:56.856Z,86.90
2018-10-17T07:49:24.926Z,85.80
2018-10-17T07:51:52.991Z,86.10
2018-10-17T07:54:21.150Z,86.30
2018-10-17T07:56:49.473Z,85.90
2018-10-17T07:59:17.543Z,86.10
2018-10-17T08:01:45.627Z,85.50
2018-10-17T08:04:13.702Z,84.80
2018-10-17T08:06:41.898Z,84.20
2018-10-17T08:09:10.870Z,83.50
2018-10-17T08:11:38.960Z,83.80
2018-10-17T08:14:07.233Z,83.20
2018-10-17T08:16:35.292Z,82.50
2018-10-17T08:19:03.355Z,83.10
2018-10-17T08:21:31.711Z,80.60
2018-10-17T08:23:59.736Z,80.30
2018-10-17T08:26:27.978Z,79.90
2018-10-17T08:28:56.050Z,79.80
2018-10-17T08:31:24.114Z,79.00
2018-10-17T08:33:52.387Z,78.70
2018-10-17T08:36:20.650Z,79.10
2018-10-17T08:38:48.527Z,79.10
2018-10-17T08:41:16.616Z,78.60
2018-10-17T08:43:44.674Z,77.40
2018-10-17T08:46:13.574Z,76.90
2018-10-17T08:48:41.695Z,77.30
2018-10-17T08:51:10.048Z,76.00
2018-10-17T08:53:38.102Z,75.60
2018-10-17T08:56:06.311Z,75.30
2018-10-17T08:58:34.334Z,75.00
2018-10-17T09:01:02.410Z,74.70
2018-10-17T09:03:30.483Z,75.80
2018-10-17T09:05:58.584Z,75.00
2018-10-17T09:08:26.642Z,74.40
2018-10-17T09:10:54.714Z,73.90
2018-10-17T09:13:22.838Z,73.30
2018-10-17T09:15:50.893Z,73.90
2018-10-17T09:18:18.955Z,73.30
2018-10-17T09:20:47.141Z,72.90
2018-10-17T09:23:15.082Z,73.10
2018-10-17T09:25:43.205Z,73.20
2018-10-17T09:28:11.476Z,73.20
2018-10-17T09:30:39.457Z,73.00
2018-10-17T09:33:07.478Z,73.30
2018-10-17T09:35:35.604Z,72.60
2018-10-17T09:38:03.624Z,72.30
2018-10-17T09:40:32.810Z,71.90
2018-10-17T09:43:00.904Z,72.20
2018-10-17T09:45:29.008Z,71.90
2018-10-17T09:47:58.116Z,71.00
2018-10-17T09:50:26.190Z,70.80
2018-10-17T09:52:54.261Z,70.70
2018-10-17T09:55:22.354Z,70.40
2018-10-17T09:57:50.426Z,70.40
2018-10-17T10:00:23.875Z,69.70
2018-10-17T10:02:52.819Z,69.90
2018-10-17T10:05:21.517Z,69.10
2018-10-17T10:07:49.606Z,68.70
2018-10-17T10:10:17.799Z,68.30
2018-10-17T10:12:45.762Z,68.80
2018-10-17T10:15:13.843Z,68.70
2018-10-17T10:17:42.006Z,68.80
2018-10-17T10:20:09.983Z,68.50
2018-10-17T10:22:38.058Z,68.40
2018-10-17T10:25:06.329Z,68.30
2018-10-17T10:27:34.363Z,68.20
2018-10-17T10:30:02.563Z,67.50
2018-10-17T10:32:30.622Z,67.80
2018-10-17T10:34:58.675Z,68.70
2018-10-17T10:37:26.849Z,67.80
2018-10-17T10:39:54.939Z,67.90
2018-10-17T10:42:23.211Z,67.90
2018-10-17T10:44:51.328Z,67.50
2018-10-17T10:47:19.378Z,66.50
2018-10-17T10:49:47.587Z,66.80
2018-10-17T10:52:15.689Z,66.90
2018-10-17T10:54:43.754Z,67.00
2018-10-17T10:57:11.921Z,66.90
2018-10-17T10:59:40.095Z,66.30
2018-10-17T11:02:08.060Z,66.30
2018-10-17T11:04:36.109Z,65.40
2018-10-17T11:07:04.135Z,66.10
2018-10-17T11:09:32.203Z,64.80
2018-10-17T11:12:00.262Z,65.00
2018-10-17T11:14:28.499Z,64.30
2018-10-17T11:16:56.537Z,63.80
2018-10-17T11:19:24.534Z,64.80
2018-10-17T11:21:52.632Z,64.40
2018-10-17T11:24:20.678Z,64.10
2018-10-17T11:26:48.750Z,64.40
2018-10-17T11:29:16.924Z,64.60
2018-10-17T11:31:45.007Z,65.20
2018-10-17T11:34:13.050Z,64.60
2018-10-17T11:36:41.170Z,64.50
2018-10-17T11:39:09.943Z,63.70
2018-10-17T11:41:38.091Z,63.90
2018-10-17T11:44:06.091Z,64.50
2018-10-17T11:46:34.411Z,64.10
2018-10-17T11:49:02.682Z,64.50
2018-10-17T11:51:30.812Z,64.40
2018-10-17T11:53:58.875Z,64.10
2018-10-17T11:56:26.993Z,63.40
2018-10-17T11:58:55.071Z,63.40
2018-10-17T12:01:23.170Z,62.70
2018-10-17T12:03:52.046Z,62.90
2018-10-17T12:06:19.945Z,63.70
2018-10-17T12:08:47.910Z,62.70
2018-10-17T12:11:16.650Z,63.70
2018-10-17T12:13:44.790Z,63.20
2018-10-17T12:16:12.892Z,63.20
2018-10-17T12:18:40.959Z,63.20
2018-10-17T12:21:09.063Z,63.40
2018-10-17T12:23:37.088Z,63.50
2018-10-17T12:26:05.155Z,63.30
2018-10-17T12:28:33.320Z,63.10
2018-10-17T12:31:01.294Z,63.20
2018-10-17T12:33:29.375Z,63.70
2018-10-17T12:35:57.440Z,63.60
2018-10-17T12:38:25.510Z,63.30
2018-10-17T12:40:53.749Z,63.60
2018-10-17T12:43:21.702Z,63.30
2018-10-17T12:45:49.886Z,62.70
2018-10-17T12:48:17.922Z,64.00
2018-10-17T12:50:45.979Z,63.50
2018-10-17T12:53:14.160Z,63.60
2018-10-17T12:55:42.143Z,63.50
2018-10-17T12:58:10.218Z,62.90
2018-10-17T13:00:38.298Z,62.40
2018-10-17T13:03:06.382Z,62.60
2018-10-17T13:05:34.446Z,62.60
2018-10-17T13:08:02.525Z,62.70
2018-10-17T13:10:30.586Z,62.30
2018-10-17T13:12:58.689Z,61.40
2018-10-17T13:15:26.725Z,62.50
2018-10-17T13:17:54.802Z,60.60
2018-10-17T13:20:22.862Z,61.90
2018-10-17T13:22:50.952Z,61.90
2018-10-17T13:25:19.011Z,61.80
2018-10-17T13:27:47.198Z,61.50
2018-10-17T13:30:15.262Z,61.70
2018-10-17T13:32:43.407Z,60.60
2018-10-17T13:35:11.503Z,60.60
2018-10-17T13:37:39.539Z,61.40
2018-10-17T13:40:07.639Z,61.20
2018-10-17T13:42:35.760Z,61.30
2018-10-17T13:45:03.780Z,61.60
2018-10-17T13:47:31.850Z,61.80
2018-10-17T13:49:59.918Z,61.80
2018-10-17T13:52:27.979Z,63.10
2018-10-17T13:54:56.060Z,63.50
2018-10-17T13:57:24.128Z,64.30
2018-10-17T13:59:52.225Z,63.90
2018-10-17T14:02:20.288Z,64.10
2018-10-17T14:04:48.364Z,64.10
2018-10-17T14:07:16.480Z,64.60
2018-10-17T14:09:44.527Z,65.00
2018-10-17T14:12:12.686Z,65.10
2018-10-17T14:14:40.666Z,65.30
2018-10-17T14:17:08.722Z,65.20
2018-10-17T14:19:36.811Z,65.00
2018-10-17T14:22:05.652Z,65.00
2018-10-17T14:24:33.742Z,65.60
2018-10-17T14:27:01.836Z,66.10
2018-10-17T14:29:29.896Z,66.40
2018-10-17T14:31:57.959Z,66.10
2018-10-17T14:34:26.034Z,65.90
2018-10-17T14:36:54.128Z,66.00
2018-10-17T14:39:22.294Z,66.20
2018-10-17T14:41:50.260Z,65.90
2018-10-17T14:44:18.334Z,65.90
2018-10-17T14:46:46.414Z,65.90
2018-10-17T14:49:14.500Z,65.60
2018-10-17T14:51:42.594Z,66.30
2018-10-17T14:54:10.679Z,66.20
2018-10-17T14:56:38.754Z,65.90
2018-10-17T14:59:06.892Z,66.00
2018-10-17T15:01:34.930Z,66.30
2018-10-17T15:04:03.003Z,66.50
2018-10-17T15:06:31.067Z,66.70
2018-10-17T15:08:59.165Z,66.50
2018-10-17T15:11:27.284Z,66.60
2018-10-17T15:13:55.426Z,66.70
2018-10-17T15:16:23.502Z,66.60
2018-10-17T15:18:51.578Z,66.60
2018-10-17T15:21:19.650Z,67.10
2018-10-17T15:23:47.751Z,67.40
2018-10-17T15:26:15.818Z,67.60
2018-10-17T15:28:43.897Z,67.80
2018-10-17T15:31:12.803Z,68.10
2018-10-17T15:33:40.851Z,67.90
2018-10-17T15:36:09.113Z,68.20
2018-10-17T15:38:37.192Z,68.30
2018-10-17T15:41:05.268Z,68.80
2018-10-17T15:43:33.376Z,69.20
2018-10-17T15:46:01.439Z,69.10
2018-10-17T15:48:29.523Z,69.30
2018-10-17T15:50:57.628Z,69.60
2018-10-17T15:53:25.733Z,69.40
2018-10-17T15:55:53.739Z,69.50
2018-10-17T15:58:21.827Z,69.50
2018-10-17T16:00:49.913Z,69.70
2018-10-17T16:03:17.987Z,70.00
2018-10-17T16:05:46.062Z,70.70
2018-10-17T16:08:14.294Z,71.00
2018-10-17T16:10:42.318Z,71.00
2018-10-17T16:13:10.417Z,71.10
2018-10-17T16:15:40.502Z,71.70
2018-10-17T16:18:10.409Z,72.20
2018-10-17T16:20:38.486Z,72.70
2018-10-17T16:23:06.812Z,73.00
2018-10-17T16:25:34.895Z,73.20
2018-10-17T16:28:02.971Z,73.50
2018-10-17T16:30:31.114Z,73.60
2018-10-17T16:32:59.131Z,73.70
2018-10-17T16:35:27.198Z,74.00
2018-10-17T16:37:55.338Z,74.20
2018-10-17T16:40:23.359Z,74.70
2018-10-17T16:42:51.431Z,74.80
2018-10-17T16:45:19.702Z,75.10
2018-10-17T16:47:47.764Z,75.40
2018-10-17T16:50:15.972Z,75.50
2018-10-17T16:52:44.224Z,75.60
2018-10-17T16:55:12.329Z,75.80
2018-10-17T16:57:40.370Z,76.00
2018-10-17T17:00:09.854Z,75.80
2018-10-17T17:02:38.152Z,76.10
2018-10-17T17:05:08.935Z,76.20
2018-10-17T17:07:36.998Z,76.30
2018-10-17T17:10:05.679Z,76.50
2018-10-17T17:12:33.751Z,76.50
2018-10-17T17:15:01.924Z,76.70
2018-10-17T17:17:30.069Z,76.70
2018-10-17T17:19:58.391Z,76.40
2018-10-17T17:22:33.066Z,76.90
2018-10-17T17:25:01.128Z,77.00
2018-10-17T17:27:29.213Z,76.70
2018-10-17T17:29:57.297Z,76.90
2018-10-17T17:32:25.372Z,76.80
2018-10-17T17:34:53.446Z,77.10
2018-10-17T17:37:21.527Z,77.20
2018-10-17T17:39:49.620Z,77.10
2018-10-17T17:42:17.798Z,77.60
2018-10-17T17:44:45.875Z,77.60
2018-10-17T17:47:14.008Z,77.40
2018-10-17T17:49:42.082Z,77.90
2018-10-17T17:52:10.247Z,78.00
2018-10-17T17:54:38.311Z,77.90
2018-10-17T17:57:06.719Z,78.00
2018-10-17T17:59:34.834Z,78.30
2018-10-17T18:02:02.922Z,78.60
2018-10-17T18:04:31.008Z,78.80
2018-10-17T18:06:59.103Z,78.80
2018-10-17T18:09:27.181Z,78.90
2018-10-17T18:11:55.298Z,79.20
2018-10-17T18:14:23.385Z,79.10
2018-10-17T18:16:51.455Z,79.00
2018-10-17T18:19:19.534Z,79.50
2018-10-17T18:21:47.648Z,79.80
2018-10-17T18:24:15.786Z,79.80
2018-10-17T18:26:43.866Z,80.00
2018-10-17T18:29:11.930Z,79.80
2018-10-17T18:31:40.006Z,79.50
2018-10-17T18:34:08.107Z,79.20
2018-10-17T18:36:36.182Z,79.00
2018-10-17T18:39:06.355Z,79.20
2018-10-17T18:41:34.432Z,79.20
2018-10-17T18:44:02.534Z,79.20
2018-10-17T18:46:31.726Z,79.30
2018-10-17T18:48:59.825Z,79.30
2018-10-17T18:51:27.895Z,79.30
2018-10-17T18:53:56.036Z,79.50
2018-10-17T18:56:24.162Z,79.60
2018-10-17T18:58:52.302Z,79.70
2018-10-17T19:01:20.407Z,80.00
2018-10-17T19:03:48.457Z,80.10
2018-10-17T19:06:16.537Z,80.30
2018-10-17T19:08:44.643Z,80.60
2018-10-17T19:11:12.714Z,80.80
2018-10-17T19:13:40.786Z,80.90
2018-10-17T19:16:08.954Z,81.10
2018-10-17T19:18:36.944Z,81.20
2018-10-17T19:21:05.226Z,81.30
2018-10-17T19:23:33.227Z,81.40
2018-10-17T19:26:01.315Z,81.40
2018-10-17T19:28:29.382Z,81.40
2018-10-17T19:30:57.462Z,81.50
2018-10-17T19:33:25.593Z,81.50
2018-10-17T19:35:53.717Z,81.60
2018-10-17T19:38:21.762Z,81.60
2018-10-17T19:40:49.843Z,81.60
2018-10-17T19:43:17.916Z,81.80
2018-10-17T19:45:46.010Z,82.00
2018-10-17T19:48:14.076Z,81.80
2018-10-17T19:50:42.147Z,81.80
2018-10-17T19:53:10.250Z,81.80
2018-10-17T19:55:38.327Z,81.80
2018-10-17T19:58:06.410Z,81.80
2018-10-17T20:00:34.487Z,82.00
2018-10-17T20:03:02.570Z,82.10
2018-10-17T20:05:30.648Z,82.30
2018-10-17T20:07:58.727Z,82.50
2018-10-17T20:10:26.905Z,82.80
2018-10-17T20:12:54.986Z,83.00
2018-10-17T20:15:23.106Z,83.20
2018-10-17T20:17:51.182Z,83.30
2018-10-17T20:20:19.272Z,83.40
2018-10-17T20:22:47.344Z,83.70
2018-10-17T20:25:15.505Z,83.90
2018-10-17T20:27:43.542Z,84.10
2018-10-17T20:30:11.631Z,84.20
2018-10-17T20:32:39.866Z,84.30
2018-10-17T20:35:08.331Z,84.50
2018-10-17T20:37:36.334Z,84.70
2018-10-17T20:40:04.711Z,84.70
2018-10-17T20:42:32.787Z,84.70
2018-10-17T20:45:00.851Z,84.90
2018-10-17T20:47:28.941Z,84.90
2018-10-17T20:49:57.060Z,84.90
2018-10-17T20:52:25.108Z,85.20
2018-10-17T20:54:53.147Z,85.20
2018-10-17T20:57:21.241Z,85.30
2018-10-17T20:59:49.328Z,85.40
2018-10-17T21:02:17.483Z,85.40
2018-10-17T21:04:45.474Z,85.50
2018-10-17T21:07:13.550Z,85.50
2018-10-17T21:09:41.618Z,85.60
2018-10-17T21:12:09.699Z,85.70
2018-10-17T21:14:37.762Z,85.80
2018-10-17T21:17:06.279Z,85.90
2018-10-17T21:19:34.350Z,86.00
2018-10-17T21:22:02.438Z,86.20
2018-10-17T21:24:30.806Z,86.30
2018-10-17T21:26:58.959Z,86.50
2018-10-17T21:29:26.962Z,86.80
2018-10-17T21:31:55.076Z,87.20
2018-10-17T21:34:23.122Z,87.40
2018-10-17T21:36:51.219Z,87.50
2018-10-17T21:39:19.298Z,87.70
2018-10-17T21:41:47.398Z,87.90
2018-10-17T21:44:15.568Z,88.00
2018-10-17T21:46:43.562Z,88.30
2018-10-17T21:49:11.634Z,88.60
2018-10-17T21:51:40.327Z,88.80
2018-10-17T21:54:08.417Z,88.90
2018-10-17T21:56:36.715Z,89.00
2018-10-17T21:59:05.402Z,89.20
2018-10-17T22:01:33.486Z,89.50
2018-10-17T22:04:01.572Z,89.70
2018-10-17T22:06:29.642Z,89.80
2018-10-17T22:08:57.707Z,90.10
2018-10-17T22:11:25.781Z,90.20
2018-10-17T22:13:54.032Z,90.40
2018-10-17T22:16:26.401Z,90.60
2018-10-17T22:18:54.500Z,90.60
2018-10-17T22:21:22.553Z,90.70
2018-10-17T22:23:50.659Z,90.70
2018-10-17T22:26:18.831Z,90.70
2018-10-17T22:28:46.827Z,90.80
2018-10-17T22:31:14.907Z,90.80
2018-10-17T22:33:42.982Z,90.90
2018-10-17T22:36:11.076Z,91.00
2018-10-17T22:38:39.157Z,91.00
2018-10-17T22:41:07.245Z,90.90
2018-10-17T22:43:35.306Z,90.90
2018-10-17T22:46:03.382Z,90.80
2018-10-17T22:48:31.465Z,90.90
2018-10-17T22:50:59.539Z,90.90
2018-10-17T22:53:27.639Z,90.90
2018-10-17T22:55:55.729Z,90.80
2018-10-17T22:58:23.809Z,90.80
2018-10-17T23:00:51.882Z,90.60
2018-10-17T23:03:19.962Z,90.50
2018-10-17T23:05:48.046Z,90.30
2018-10-17T23:08:16.245Z,90.20
2018-10-17T23:10:44.250Z,90.20
2018-10-17T23:13:12.343Z,90.10
2018-10-17T23:15:40.515Z,90.10
2018-10-17T23:18:08.594Z,90.10
2018-10-17T23:20:36.677Z,90.00
2018-10-17T23:23:04.928Z,89.90
2018-10-17T23:25:32.998Z,89.80
2018-10-17T23:28:01.311Z,89.70
2018-10-17T23:30:29.389Z,89.70
2018-10-17T23:32:57.532Z,89.50
2018-10-17T23:35:25.771Z,89.50
2018-10-17T23:37:53.892Z,89.40
2018-10-17T23:40:21.936Z,89.10
2018-10-17T23:42:50.024Z,89.70
2018-10-17T23:45:18.078Z,90.00
2018-10-17T23:47:46.158Z,90.30
2018-10-17T23:50:14.383Z,90.50
2018-10-17T23:52:42.423Z,90.20
2018-10-17T23:55:10.510Z,90.00
2018-10-17T23:57:38.762Z,89.50
